sensor_id;sensor_type;location;lat;lon;timestamp;P1;durP1;ratioP1;P2;durP2;ratioP2
26502;SDS011;14177;51.520;6.764;2023-08-20T00:01:33;6.47;;;2.95;;
26502;SDS011;14177;51.520;6.764;2023-08-20T00:04:00;3.88;;;2.95;;
26502;SDS011;14177;51.520;6.764;2023-08-20T00:06:28;5.40;;;3.30;;
26502;SDS011;14177;51.520;6.764;2023-08-20T00:08:56;7.72;;;3.28;;
26502;SDS011;14177;51.520;6.764;2023-08-20T00:11:22;4.47;;;2.85;;
26502;SDS011;14177;51.520;6.764;2023-08-20T00:13:49;5.53;;;3.13;;
26502;SDS011;14177;51.520;6.764;2023-08-20T00:16:16;8.25;;;3.58;;
26502;SDS011;14177;51.520;6.764;2023-08-20T00:18:44;6.55;;;3.20;;
26502;SDS011;14177;51.520;6.764;2023-08-20T00:21:13;6.30;;;3.53;;
26502;SDS011;14177;51.520;6.764;2023-08-20T00:23:41;7.07;;;3.40;;
26502;SDS011;14177;51.520;6.764;2023-08-20T00:26:08;6.78;;;4.20;;
26502;SDS011;14177;51.520;6.764;2023-08-20T00:28:36;5.78;;;3.30;;
26502;SDS011;14177;51.520;6.764;2023-08-20T00:31:05;6.40;;;3.40;;
26502;SDS011;14177;51.520;6.764;2023-08-20T00:33:32;8.13;;;3.15;;
26502;SDS011;14177;51.520;6.764;2023-08-20T00:35:59;6.65;;;3.28;;
26502;SDS011;14177;51.520;6.764;2023-08-20T00:38:26;7.45;;;3.40;;
26502;SDS011;14177;51.520;6.764;2023-08-20T00:40:53;5.90;;;3.70;;
26502;SDS011;14177;51.520;6.764;2023-08-20T00:43:20;7.28;;;3.00;;
26502;SDS011;14177;51.520;6.764;2023-08-20T00:45:48;5.00;;;3.20;;
26502;SDS011;14177;51.520;6.764;2023-08-20T00:48:15;5.88;;;3.33;;
26502;SDS011;14177;51.520;6.764;2023-08-20T00:50:43;8.77;;;3.35;;
26502;SDS011;14177;51.520;6.764;2023-08-20T00:53:11;6.75;;;3.60;;
26502;SDS011;14177;51.520;6.764;2023-08-20T00:55:40;6.60;;;3.70;;
26502;SDS011;14177;51.520;6.764;2023-08-20T00:58:10;6.53;;;3.17;;
26502;SDS011;14177;51.520;6.764;2023-08-20T01:00:38;6.95;;;3.35;;
26502;SDS011;14177;51.520;6.764;2023-08-20T01:03:07;6.90;;;3.53;;
26502;SDS011;14177;51.520;6.764;2023-08-20T01:05:36;4.43;;;3.38;;
26502;SDS011;14177;51.520;6.764;2023-08-20T01:08:22;6.40;;;3.42;;
26502;SDS011;14177;51.520;6.764;2023-08-20T01:11:10;7.03;;;3.55;;
26502;SDS011;14177;51.520;6.764;2023-08-20T01:13:47;5.25;;;3.63;;
26502;SDS011;14177;51.520;6.764;2023-08-20T01:16:14;6.78;;;3.33;;
26502;SDS011;14177;51.520;6.764;2023-08-20T01:18:40;15.73;;;3.88;;
26502;SDS011;14177;51.520;6.764;2023-08-20T01:21:16;5.05;;;3.50;;
26502;SDS011;14177;51.520;6.764;2023-08-20T01:24:05;6.75;;;3.47;;
26502;SDS011;14177;51.520;6.764;2023-08-20T01:30:02;9.18;;;3.63;;
26502;SDS011;14177;51.520;6.764;2023-08-20T01:32:30;4.45;;;3.25;;
26502;SDS011;14177;51.520;6.764;2023-08-20T01:34:57;3.83;;;3.28;;
26502;SDS011;14177;51.520;6.764;2023-08-20T01:37:24;6.60;;;3.30;;
26502;SDS011;14177;51.520;6.764;2023-08-20T01:39:51;5.78;;;3.40;;
26502;SDS011;14177;51.520;6.764;2023-08-20T01:42:18;6.40;;;3.72;;
26502;SDS011;14177;51.520;6.764;2023-08-20T01:44:45;12.55;;;4.20;;
26502;SDS011;14177;51.520;6.764;2023-08-20T01:47:12;5.72;;;3.63;;
26502;SDS011;14177;51.520;6.764;2023-08-20T01:49:39;5.43;;;3.60;;
26502;SDS011;14177;51.520;6.764;2023-08-20T01:52:06;6.63;;;3.70;;
26502;SDS011;14177;51.520;6.764;2023-08-20T01:54:33;4.38;;;2.72;;
26502;SDS011;14177;51.520;6.764;2023-08-20T01:57:00;5.88;;;3.40;;
26502;SDS011;14177;51.520;6.764;2023-08-20T01:59:27;4.68;;;2.95;;
26502;SDS011;14177;51.520;6.764;2023-08-20T02:01:54;7.85;;;3.97;;
26502;SDS011;14177;51.520;6.764;2023-08-20T02:04:21;6.35;;;3.72;;
26502;SDS011;14177;51.520;6.764;2023-08-20T02:06:48;9.93;;;3.40;;
26502;SDS011;14177;51.520;6.764;2023-08-20T02:09:15;5.93;;;3.08;;
26502;SDS011;14177;51.520;6.764;2023-08-20T02:11:43;5.35;;;3.22;;
26502;SDS011;14177;51.520;6.764;2023-08-20T02:14:10;6.10;;;3.58;;
26502;SDS011;14177;51.520;6.764;2023-08-20T02:16:36;7.47;;;3.42;;
26502;SDS011;14177;51.520;6.764;2023-08-20T02:19:04;6.95;;;3.35;;
26502;SDS011;14177;51.520;6.764;2023-08-20T02:21:33;7.70;;;4.03;;
26502;SDS011;14177;51.520;6.764;2023-08-20T02:24:00;4.55;;;2.85;;
26502;SDS011;14177;51.520;6.764;2023-08-20T02:26:27;6.57;;;3.13;;
26502;SDS011;14177;51.520;6.764;2023-08-20T02:28:54;5.78;;;2.97;;
26502;SDS011;14177;51.520;6.764;2023-08-20T02:31:21;6.88;;;3.63;;
26502;SDS011;14177;51.520;6.764;2023-08-20T02:33:48;9.15;;;3.35;;
26502;SDS011;14177;51.520;6.764;2023-08-20T02:36:15;6.70;;;3.67;;
26502;SDS011;14177;51.520;6.764;2023-08-20T02:38:42;7.72;;;4.00;;
26502;SDS011;14177;51.520;6.764;2023-08-20T02:41:11;6.75;;;3.45;;
26502;SDS011;14177;51.520;6.764;2023-08-20T02:43:38;11.73;;;3.90;;
26502;SDS011;14177;51.520;6.764;2023-08-20T02:46:05;6.40;;;3.38;;
26502;SDS011;14177;51.520;6.764;2023-08-20T02:48:33;11.15;;;4.15;;
26502;SDS011;14177;51.520;6.764;2023-08-20T02:51:00;10.80;;;4.00;;
26502;SDS011;14177;51.520;6.764;2023-08-20T02:53:27;8.98;;;3.70;;
26502;SDS011;14177;51.520;6.764;2023-08-20T02:55:54;6.05;;;3.92;;
26502;SDS011;14177;51.520;6.764;2023-08-20T02:58:22;4.70;;;3.40;;
26502;SDS011;14177;51.520;6.764;2023-08-20T03:00:49;5.80;;;3.35;;
26502;SDS011;14177;51.520;6.764;2023-08-20T03:03:16;7.40;;;3.78;;
26502;SDS011;14177;51.520;6.764;2023-08-20T03:05:43;6.82;;;3.55;;
26502;SDS011;14177;51.520;6.764;2023-08-20T03:08:10;7.25;;;3.47;;
26502;SDS011;14177;51.520;6.764;2023-08-20T03:10:37;8.40;;;4.00;;
26502;SDS011;14177;51.520;6.764;2023-08-20T03:13:05;12.18;;;4.00;;
26502;SDS011;14177;51.520;6.764;2023-08-20T03:15:32;5.93;;;4.05;;
26502;SDS011;14177;51.520;6.764;2023-08-20T03:17:59;6.15;;;3.90;;
26502;SDS011;14177;51.520;6.764;2023-08-20T03:20:26;6.32;;;3.17;;
26502;SDS011;14177;51.520;6.764;2023-08-20T03:22:54;7.03;;;3.88;;
26502;SDS011;14177;51.520;6.764;2023-08-20T03:25:21;6.70;;;3.28;;
26502;SDS011;14177;51.520;6.764;2023-08-20T03:27:49;5.13;;;3.28;;
26502;SDS011;14177;51.520;6.764;2023-08-20T03:30:18;6.72;;;4.05;;
26502;SDS011;14177;51.520;6.764;2023-08-20T03:32:45;7.15;;;4.32;;
26502;SDS011;14177;51.520;6.764;2023-08-20T03:35:12;8.27;;;4.07;;
26502;SDS011;14177;51.520;6.764;2023-08-20T03:37:41;5.38;;;3.70;;
26502;SDS011;14177;51.520;6.764;2023-08-20T03:40:09;10.57;;;4.18;;
26502;SDS011;14177;51.520;6.764;2023-08-20T03:42:36;4.95;;;3.60;;
26502;SDS011;14177;51.520;6.764;2023-08-20T03:45:04;7.60;;;4.05;;
26502;SDS011;14177;51.520;6.764;2023-08-20T03:47:31;9.65;;;3.95;;
26502;SDS011;14177;51.520;6.764;2023-08-20T03:50:00;12.93;;;4.43;;
26502;SDS011;14177;51.520;6.764;2023-08-20T03:52:27;6.78;;;3.97;;
26502;SDS011;14177;51.520;6.764;2023-08-20T03:54:53;6.50;;;3.67;;
26502;SDS011;14177;51.520;6.764;2023-08-20T03:57:21;6.88;;;3.83;;
26502;SDS011;14177;51.520;6.764;2023-08-20T03:59:49;16.92;;;4.25;;
26502;SDS011;14177;51.520;6.764;2023-08-20T04:02:16;6.05;;;3.80;;
26502;SDS011;14177;51.520;6.764;2023-08-20T04:04:43;7.88;;;3.58;;
26502;SDS011;14177;51.520;6.764;2023-08-20T04:07:10;7.40;;;4.03;;
26502;SDS011;14177;51.520;6.764;2023-08-20T04:09:37;10.30;;;4.15;;
26502;SDS011;14177;51.520;6.764;2023-08-20T04:12:05;6.35;;;3.80;;
26502;SDS011;14177;51.520;6.764;2023-08-20T04:14:32;10.77;;;4.55;;
26502;SDS011;14177;51.520;6.764;2023-08-20T04:16:59;10.05;;;4.38;;
26502;SDS011;14177;51.520;6.764;2023-08-20T04:19:26;7.70;;;4.28;;
26502;SDS011;14177;51.520;6.764;2023-08-20T04:21:53;9.45;;;4.35;;
26502;SDS011;14177;51.520;6.764;2023-08-20T04:24:20;6.13;;;3.83;;
26502;SDS011;14177;51.520;6.764;2023-08-20T04:26:47;5.75;;;3.58;;
26502;SDS011;14177;51.520;6.764;2023-08-20T04:29:21;5.93;;;4.03;;
26502;SDS011;14177;51.520;6.764;2023-08-20T04:31:48;7.25;;;3.83;;
26502;SDS011;14177;51.520;6.764;2023-08-20T04:34:15;4.97;;;3.35;;
26502;SDS011;14177;51.520;6.764;2023-08-20T04:36:46;6.70;;;4.00;;
26502;SDS011;14177;51.520;6.764;2023-08-20T04:39:13;7.47;;;4.15;;
26502;SDS011;14177;51.520;6.764;2023-08-20T04:41:44;9.98;;;3.70;;
26502;SDS011;14177;51.520;6.764;2023-08-20T04:44:14;6.28;;;3.75;;
26502;SDS011;14177;51.520;6.764;2023-08-20T04:46:43;7.03;;;3.58;;
26502;SDS011;14177;51.520;6.764;2023-08-20T04:49:10;7.65;;;3.90;;
26502;SDS011;14177;51.520;6.764;2023-08-20T04:51:38;5.70;;;3.70;;
26502;SDS011;14177;51.520;6.764;2023-08-20T04:54:06;9.02;;;4.40;;
26502;SDS011;14177;51.520;6.764;2023-08-20T04:56:32;11.30;;;3.97;;
26502;SDS011;14177;51.520;6.764;2023-08-20T04:58:59;7.72;;;3.85;;
26502;SDS011;14177;51.520;6.764;2023-08-20T05:01:45;6.90;;;3.78;;
26502;SDS011;14177;51.520;6.764;2023-08-20T05:04:12;6.72;;;4.20;;
26502;SDS011;14177;51.520;6.764;2023-08-20T05:06:39;9.18;;;4.40;;
26502;SDS011;14177;51.520;6.764;2023-08-20T05:09:06;9.93;;;4.43;;
26502;SDS011;14177;51.520;6.764;2023-08-20T05:11:35;9.40;;;4.30;;
26502;SDS011;14177;51.520;6.764;2023-08-20T05:14:02;6.75;;;4.15;;
26502;SDS011;14177;51.520;6.764;2023-08-20T05:16:29;12.85;;;5.05;;
26502;SDS011;14177;51.520;6.764;2023-08-20T05:18:56;7.65;;;4.30;;
26502;SDS011;14177;51.520;6.764;2023-08-20T05:21:23;7.47;;;3.97;;
26502;SDS011;14177;51.520;6.764;2023-08-20T05:23:52;8.25;;;4.30;;
26502;SDS011;14177;51.520;6.764;2023-08-20T05:26:19;7.45;;;4.80;;
26502;SDS011;14177;51.520;6.764;2023-08-20T05:28:48;9.55;;;4.55;;
26502;SDS011;14177;51.520;6.764;2023-08-20T05:31:15;8.68;;;4.55;;
26502;SDS011;14177;51.520;6.764;2023-08-20T05:33:42;7.55;;;4.50;;
26502;SDS011;14177;51.520;6.764;2023-08-20T05:36:09;12.55;;;5.18;;
26502;SDS011;14177;51.520;6.764;2023-08-20T05:38:36;7.05;;;3.95;;
26502;SDS011;14177;51.520;6.764;2023-08-20T05:41:03;7.03;;;5.07;;
26502;SDS011;14177;51.520;6.764;2023-08-20T05:43:30;8.57;;;4.38;;
26502;SDS011;14177;51.520;6.764;2023-08-20T05:45:57;7.72;;;4.72;;
26502;SDS011;14177;51.520;6.764;2023-08-20T05:48:25;10.63;;;5.68;;
26502;SDS011;14177;51.520;6.764;2023-08-20T05:50:52;10.50;;;5.55;;
26502;SDS011;14177;51.520;6.764;2023-08-20T05:53:19;10.25;;;6.55;;
26502;SDS011;14177;51.520;6.764;2023-08-20T05:55:48;10.05;;;5.93;;
26502;SDS011;14177;51.520;6.764;2023-08-20T05:58:16;15.32;;;5.80;;
26502;SDS011;14177;51.520;6.764;2023-08-20T06:00:43;14.52;;;6.70;;
26502;SDS011;14177;51.520;6.764;2023-08-20T06:03:10;12.18;;;6.90;;
26502;SDS011;14177;51.520;6.764;2023-08-20T06:05:37;12.90;;;6.82;;
26502;SDS011;14177;51.520;6.764;2023-08-20T06:08:04;11.98;;;7.13;;
26502;SDS011;14177;51.520;6.764;2023-08-20T06:10:32;11.60;;;6.07;;
26502;SDS011;14177;51.520;6.764;2023-08-20T06:12:59;15.27;;;7.50;;
26502;SDS011;14177;51.520;6.764;2023-08-20T06:15:26;11.48;;;7.32;;
26502;SDS011;14177;51.520;6.764;2023-08-20T06:17:53;15.48;;;8.07;;
26502;SDS011;14177;51.520;6.764;2023-08-20T06:20:20;15.65;;;8.27;;
26502;SDS011;14177;51.520;6.764;2023-08-20T06:22:47;14.38;;;8.10;;
26502;SDS011;14177;51.520;6.764;2023-08-20T06:25:14;15.40;;;8.60;;
26502;SDS011;14177;51.520;6.764;2023-08-20T06:27:42;16.25;;;9.35;;
26502;SDS011;14177;51.520;6.764;2023-08-20T06:30:09;17.42;;;9.60;;
26502;SDS011;14177;51.520;6.764;2023-08-20T06:32:36;15.43;;;9.32;;
26502;SDS011;14177;51.520;6.764;2023-08-20T06:35:03;17.52;;;9.30;;
26502;SDS011;14177;51.520;6.764;2023-08-20T06:37:31;17.73;;;9.38;;
26502;SDS011;14177;51.520;6.764;2023-08-20T06:39:59;21.10;;;10.18;;
26502;SDS011;14177;51.520;6.764;2023-08-20T06:42:26;18.63;;;10.45;;
26502;SDS011;14177;51.520;6.764;2023-08-20T06:44:53;16.38;;;10.68;;
26502;SDS011;14177;51.520;6.764;2023-08-20T06:47:20;19.48;;;11.02;;
26502;SDS011;14177;51.520;6.764;2023-08-20T06:49:47;19.13;;;11.50;;
26502;SDS011;14177;51.520;6.764;2023-08-20T06:52:16;21.95;;;11.68;;
26502;SDS011;14177;51.520;6.764;2023-08-20T06:54:44;22.73;;;12.20;;
26502;SDS011;14177;51.520;6.764;2023-08-20T06:57:11;24.17;;;12.68;;
26502;SDS011;14177;51.520;6.764;2023-08-20T06:59:38;24.17;;;13.07;;
26502;SDS011;14177;51.520;6.764;2023-08-20T07:02:05;25.52;;;16.05;;
26502;SDS011;14177;51.520;6.764;2023-08-20T07:04:32;24.50;;;15.68;;
26502;SDS011;14177;51.520;6.764;2023-08-20T07:06:59;30.15;;;16.45;;
26502;SDS011;14177;51.520;6.764;2023-08-20T07:09:26;28.35;;;16.80;;
26502;SDS011;14177;51.520;6.764;2023-08-20T07:11:54;28.95;;;14.45;;
26502;SDS011;14177;51.520;6.764;2023-08-20T07:14:20;24.05;;;14.50;;
26502;SDS011;14177;51.520;6.764;2023-08-20T07:16:48;25.63;;;15.23;;
26502;SDS011;14177;51.520;6.764;2023-08-20T07:19:15;26.40;;;14.70;;
26502;SDS011;14177;51.520;6.764;2023-08-20T07:21:41;25.27;;;14.27;;
26502;SDS011;14177;51.520;6.764;2023-08-20T07:24:08;25.30;;;14.85;;
26502;SDS011;14177;51.520;6.764;2023-08-20T07:26:35;25.50;;;14.50;;
26502;SDS011;14177;51.520;6.764;2023-08-20T07:29:02;24.15;;;14.32;;
26502;SDS011;14177;51.520;6.764;2023-08-20T07:31:30;23.10;;;12.98;;
26502;SDS011;14177;51.520;6.764;2023-08-20T07:34:00;20.92;;;13.10;;
26502;SDS011;14177;51.520;6.764;2023-08-20T07:36:31;23.83;;;13.02;;
26502;SDS011;14177;51.520;6.764;2023-08-20T07:38:59;24.10;;;13.07;;
26502;SDS011;14177;51.520;6.764;2023-08-20T07:41:28;23.90;;;12.73;;
26502;SDS011;14177;51.520;6.764;2023-08-20T07:43:55;23.00;;;12.98;;
26502;SDS011;14177;51.520;6.764;2023-08-20T07:46:22;22.77;;;13.57;;
26502;SDS011;14177;51.520;6.764;2023-08-20T07:48:49;24.90;;;13.60;;
26502;SDS011;14177;51.520;6.764;2023-08-20T07:51:16;22.92;;;13.52;;
26502;SDS011;14177;51.520;6.764;2023-08-20T07:53:43;19.63;;;12.65;;
26502;SDS011;14177;51.520;6.764;2023-08-20T07:56:10;20.70;;;11.90;;
26502;SDS011;14177;51.520;6.764;2023-08-20T07:58:37;18.50;;;10.90;;
26502;SDS011;14177;51.520;6.764;2023-08-20T08:01:04;22.48;;;12.35;;
26502;SDS011;14177;51.520;6.764;2023-08-20T08:03:31;19.77;;;10.98;;
26502;SDS011;14177;51.520;6.764;2023-08-20T08:05:58;21.55;;;10.95;;
26502;SDS011;14177;51.520;6.764;2023-08-20T08:08:25;19.88;;;12.05;;
26502;SDS011;14177;51.520;6.764;2023-08-20T08:10:52;22.05;;;13.02;;
26502;SDS011;14177;51.520;6.764;2023-08-20T08:13:20;24.55;;;12.13;;
26502;SDS011;14177;51.520;6.764;2023-08-20T08:15:49;20.80;;;12.63;;
26502;SDS011;14177;51.520;6.764;2023-08-20T08:18:17;20.50;;;13.00;;
26502;SDS011;14177;51.520;6.764;2023-08-20T08:20:46;29.52;;;15.65;;
26502;SDS011;14177;51.520;6.764;2023-08-20T08:23:13;26.17;;;13.43;;
26502;SDS011;14177;51.520;6.764;2023-08-20T08:25:40;30.17;;;13.35;;
26502;SDS011;14177;51.520;6.764;2023-08-20T08:28:07;30.20;;;14.30;;
26502;SDS011;14177;51.520;6.764;2023-08-20T08:30:34;32.30;;;13.82;;
26502;SDS011;14177;51.520;6.764;2023-08-20T08:33:03;33.03;;;13.43;;
26502;SDS011;14177;51.520;6.764;2023-08-20T08:35:31;32.95;;;14.05;;
26502;SDS011;14177;51.520;6.764;2023-08-20T08:37:58;34.97;;;14.98;;
26502;SDS011;14177;51.520;6.764;2023-08-20T08:40:27;32.03;;;14.95;;
26502;SDS011;14177;51.520;6.764;2023-08-20T08:42:56;27.45;;;14.00;;
26502;SDS011;14177;51.520;6.764;2023-08-20T08:45:24;30.02;;;14.43;;
26502;SDS011;14177;51.520;6.764;2023-08-20T08:47:54;35.47;;;14.73;;
26502;SDS011;14177;51.520;6.764;2023-08-20T08:50:21;27.77;;;14.48;;
26502;SDS011;14177;51.520;6.764;2023-08-20T08:52:50;28.92;;;14.73;;
26502;SDS011;14177;51.520;6.764;2023-08-20T08:55:19;31.58;;;14.25;;
26502;SDS011;14177;51.520;6.764;2023-08-20T08:57:46;26.42;;;12.75;;
26502;SDS011;14177;51.520;6.764;2023-08-20T09:00:13;23.92;;;12.70;;
26502;SDS011;14177;51.520;6.764;2023-08-20T09:02:41;26.10;;;11.90;;
26502;SDS011;14177;51.520;6.764;2023-08-20T09:05:08;19.98;;;11.98;;
26502;SDS011;14177;51.520;6.764;2023-08-20T09:07:36;18.77;;;11.38;;
26502;SDS011;14177;51.520;6.764;2023-08-20T09:12:37;16.92;;;9.23;;
26502;SDS011;14177;51.520;6.764;2023-08-20T09:15:09;14.95;;;9.25;;
26502;SDS011;14177;51.520;6.764;2023-08-20T09:17:38;17.60;;;8.75;;
26502;SDS011;14177;51.520;6.764;2023-08-20T09:20:10;19.25;;;9.57;;
26502;SDS011;14177;51.520;6.764;2023-08-20T09:22:37;16.90;;;10.68;;
26502;SDS011;14177;51.520;6.764;2023-08-20T09:25:04;17.13;;;10.15;;
26502;SDS011;14177;51.520;6.764;2023-08-20T09:27:38;16.77;;;9.50;;
26502;SDS011;14177;51.520;6.764;2023-08-20T09:30:09;15.45;;;9.88;;
26502;SDS011;14177;51.520;6.764;2023-08-20T09:32:38;15.15;;;8.93;;
26502;SDS011;14177;51.520;6.764;2023-08-20T09:35:06;10.32;;;7.80;;
26502;SDS011;14177;51.520;6.764;2023-08-20T09:37:33;12.68;;;6.82;;
26502;SDS011;14177;51.520;6.764;2023-08-20T09:40:01;17.08;;;8.60;;
26502;SDS011;14177;51.520;6.764;2023-08-20T09:42:29;13.63;;;8.05;;
26502;SDS011;14177;51.520;6.764;2023-08-20T09:44:59;16.50;;;8.60;;
26502;SDS011;14177;51.520;6.764;2023-08-20T09:47:29;18.95;;;9.40;;
26502;SDS011;14177;51.520;6.764;2023-08-20T09:50:03;12.95;;;8.77;;
26502;SDS011;14177;51.520;6.764;2023-08-20T09:55:21;17.15;;;9.38;;
26502;SDS011;14177;51.520;6.764;2023-08-20T09:57:52;14.95;;;8.18;;
26502;SDS011;14177;51.520;6.764;2023-08-20T10:00:20;13.77;;;8.40;;
26502;SDS011;14177;51.520;6.764;2023-08-20T10:02:48;13.43;;;9.18;;
26502;SDS011;14177;51.520;6.764;2023-08-20T10:05:16;13.30;;;8.60;;
26502;SDS011;14177;51.520;6.764;2023-08-20T10:07:44;12.98;;;8.85;;
26502;SDS011;14177;51.520;6.764;2023-08-20T10:10:13;11.50;;;7.18;;
26502;SDS011;14177;51.520;6.764;2023-08-20T10:12:40;9.88;;;7.20;;
26502;SDS011;14177;51.520;6.764;2023-08-20T10:15:11;10.68;;;7.70;;
26502;SDS011;14177;51.520;6.764;2023-08-20T10:17:44;9.23;;;7.00;;
26502;SDS011;14177;51.520;6.764;2023-08-20T10:20:13;11.85;;;7.32;;
26502;SDS011;14177;51.520;6.764;2023-08-20T10:22:43;10.20;;;6.82;;
26502;SDS011;14177;51.520;6.764;2023-08-20T10:25:12;10.60;;;6.10;;
26502;SDS011;14177;51.520;6.764;2023-08-20T10:27:50;11.60;;;6.03;;
26502;SDS011;14177;51.520;6.764;2023-08-20T10:30:27;10.18;;;5.90;;
26502;SDS011;14177;51.520;6.764;2023-08-20T10:32:56;10.43;;;5.55;;
26502;SDS011;14177;51.520;6.764;2023-08-20T10:35:28;9.93;;;6.75;;
26502;SDS011;14177;51.520;6.764;2023-08-20T10:38:14;7.82;;;5.05;;
26502;SDS011;14177;51.520;6.764;2023-08-20T10:43:30;10.60;;;5.88;;
26502;SDS011;14177;51.520;6.764;2023-08-20T10:48:49;11.07;;;5.93;;
26502;SDS011;14177;51.520;6.764;2023-08-20T10:51:33;8.95;;;5.88;;
26502;SDS011;14177;51.520;6.764;2023-08-20T10:54:07;10.25;;;6.88;;
26502;SDS011;14177;51.520;6.764;2023-08-20T10:56:54;10.60;;;6.30;;
26502;SDS011;14177;51.520;6.764;2023-08-20T10:59:26;11.43;;;6.07;;
26502;SDS011;14177;51.520;6.764;2023-08-20T11:01:56;8.30;;;6.13;;
26502;SDS011;14177;51.520;6.764;2023-08-20T11:04:28;8.85;;;5.57;;
26502;SDS011;14177;51.520;6.764;2023-08-20T11:07:00;8.95;;;5.50;;
26502;SDS011;14177;51.520;6.764;2023-08-20T11:09:31;7.60;;;4.57;;
26502;SDS011;14177;51.520;6.764;2023-08-20T11:11:58;8.98;;;5.45;;
26502;SDS011;14177;51.520;6.764;2023-08-20T11:14:25;7.55;;;4.40;;
26502;SDS011;14177;51.520;6.764;2023-08-20T11:16:52;10.07;;;4.18;;
26502;SDS011;14177;51.520;6.764;2023-08-20T11:19:20;7.15;;;3.85;;
26502;SDS011;14177;51.520;6.764;2023-08-20T11:21:50;10.05;;;3.88;;
26502;SDS011;14177;51.520;6.764;2023-08-20T11:24:18;9.20;;;4.05;;
26502;SDS011;14177;51.520;6.764;2023-08-20T11:26:46;8.32;;;3.40;;
26502;SDS011;14177;51.520;6.764;2023-08-20T11:29:14;4.78;;;3.38;;
26502;SDS011;14177;51.520;6.764;2023-08-20T11:31:48;8.52;;;3.35;;
26502;SDS011;14177;51.520;6.764;2023-08-20T11:34:17;7.30;;;4.03;;
26502;SDS011;14177;51.520;6.764;2023-08-20T11:36:46;7.45;;;3.20;;
26502;SDS011;14177;51.520;6.764;2023-08-20T11:39:14;10.38;;;3.72;;
26502;SDS011;14177;51.520;6.764;2023-08-20T11:41:41;8.88;;;3.38;;
26502;SDS011;14177;51.520;6.764;2023-08-20T11:44:19;5.68;;;2.55;;
26502;SDS011;14177;51.520;6.764;2023-08-20T11:46:48;6.75;;;2.90;;
26502;SDS011;14177;51.520;6.764;2023-08-20T11:49:15;5.32;;;2.45;;
26502;SDS011;14177;51.520;6.764;2023-08-20T11:51:49;5.28;;;2.70;;
26502;SDS011;14177;51.520;6.764;2023-08-20T11:54:16;5.60;;;2.63;;
26502;SDS011;14177;51.520;6.764;2023-08-20T11:56:51;8.60;;;2.30;;
26502;SDS011;14177;51.520;6.764;2023-08-20T11:59:19;5.78;;;2.15;;
26502;SDS011;14177;51.520;6.764;2023-08-20T12:02:00;6.20;;;2.42;;
26502;SDS011;14177;51.520;6.764;2023-08-20T12:04:31;7.32;;;2.28;;
26502;SDS011;14177;51.520;6.764;2023-08-20T12:09:36;7.38;;;2.42;;
26502;SDS011;14177;51.520;6.764;2023-08-20T12:12:05;4.75;;;1.80;;
26502;SDS011;14177;51.520;6.764;2023-08-20T12:14:33;4.18;;;2.08;;
26502;SDS011;14177;51.520;6.764;2023-08-20T12:17:01;5.82;;;2.13;;
26502;SDS011;14177;51.520;6.764;2023-08-20T12:19:29;9.55;;;2.00;;
26502;SDS011;14177;51.520;6.764;2023-08-20T12:21:56;6.20;;;1.58;;
26502;SDS011;14177;51.520;6.764;2023-08-20T12:24:23;3.20;;;1.42;;
26502;SDS011;14177;51.520;6.764;2023-08-20T12:26:52;6.90;;;1.73;;
26502;SDS011;14177;51.520;6.764;2023-08-20T12:29:19;4.57;;;1.55;;
26502;SDS011;14177;51.520;6.764;2023-08-20T12:31:46;5.18;;;1.80;;
26502;SDS011;14177;51.520;6.764;2023-08-20T12:34:13;3.83;;;1.25;;
26502;SDS011;14177;51.520;6.764;2023-08-20T12:36:40;6.28;;;1.40;;
26502;SDS011;14177;51.520;6.764;2023-08-20T12:39:07;3.75;;;1.30;;
26502;SDS011;14177;51.520;6.764;2023-08-20T12:41:34;5.35;;;1.38;;
26502;SDS011;14177;51.520;6.764;2023-08-20T12:44:03;4.70;;;1.20;;
26502;SDS011;14177;51.520;6.764;2023-08-20T12:46:30;3.30;;;1.33;;
26502;SDS011;14177;51.520;6.764;2023-08-20T12:48:57;4.38;;;1.38;;
26502;SDS011;14177;51.520;6.764;2023-08-20T12:51:24;4.00;;;1.42;;
26502;SDS011;14177;51.520;6.764;2023-08-20T12:53:53;7.00;;;3.67;;
26502;SDS011;14177;51.520;6.764;2023-08-20T12:56:20;9.15;;;1.65;;
26502;SDS011;14177;51.520;6.764;2023-08-20T12:58:47;5.80;;;1.40;;
26502;SDS011;14177;51.520;6.764;2023-08-20T13:01:14;9.30;;;5.80;;
26502;SDS011;14177;51.520;6.764;2023-08-20T13:03:42;6.07;;;1.40;;
26502;SDS011;14177;51.520;6.764;2023-08-20T13:06:09;4.95;;;2.08;;
26502;SDS011;14177;51.520;6.764;2023-08-20T13:08:36;5.43;;;1.40;;
26502;SDS011;14177;51.520;6.764;2023-08-20T13:11:04;6.07;;;1.33;;
26502;SDS011;14177;51.520;6.764;2023-08-20T13:13:35;3.85;;;1.40;;
26502;SDS011;14177;51.520;6.764;2023-08-20T13:16:02;4.70;;;1.10;;
26502;SDS011;14177;51.520;6.764;2023-08-20T13:18:30;3.65;;;1.00;;
26502;SDS011;14177;51.520;6.764;2023-08-20T13:20:58;5.32;;;1.17;;
26502;SDS011;14177;51.520;6.764;2023-08-20T13:23:24;4.13;;;1.10;;
26502;SDS011;14177;51.520;6.764;2023-08-20T13:25:51;4.93;;;1.00;;
26502;SDS011;14177;51.520;6.764;2023-08-20T13:28:18;5.07;;;1.45;;
26502;SDS011;14177;51.520;6.764;2023-08-20T13:30:45;4.20;;;1.30;;
26502;SDS011;14177;51.520;6.764;2023-08-20T13:33:13;3.15;;;1.25;;
26502;SDS011;14177;51.520;6.764;2023-08-20T13:35:41;6.28;;;1.58;;
26502;SDS011;14177;51.520;6.764;2023-08-20T13:38:08;2.47;;;1.02;;
26502;SDS011;14177;51.520;6.764;2023-08-20T13:40:36;5.22;;;1.42;;
26502;SDS011;14177;51.520;6.764;2023-08-20T13:43:03;3.30;;;1.15;;
26502;SDS011;14177;51.520;6.764;2023-08-20T13:45:30;4.68;;;1.30;;
26502;SDS011;14177;51.520;6.764;2023-08-20T13:47:57;4.78;;;1.33;;
26502;SDS011;14177;51.520;6.764;2023-08-20T13:50:24;3.00;;;1.13;;
26502;SDS011;14177;51.520;6.764;2023-08-20T13:52:52;4.28;;;1.30;;
26502;SDS011;14177;51.520;6.764;2023-08-20T13:55:18;4.35;;;1.25;;
26502;SDS011;14177;51.520;6.764;2023-08-20T13:57:47;6.55;;;1.42;;
26502;SDS011;14177;51.520;6.764;2023-08-20T14:00:14;3.50;;;1.02;;
26502;SDS011;14177;51.520;6.764;2023-08-20T14:02:42;7.13;;;1.48;;
26502;SDS011;14177;51.520;6.764;2023-08-20T14:05:09;4.85;;;1.90;;
26502;SDS011;14177;51.520;6.764;2023-08-20T14:07:36;3.25;;;0.93;;
26502;SDS011;14177;51.520;6.764;2023-08-20T14:10:06;4.57;;;1.27;;
26502;SDS011;14177;51.520;6.764;2023-08-20T14:12:34;3.55;;;0.90;;
26502;SDS011;14177;51.520;6.764;2023-08-20T14:15:05;2.63;;;1.00;;
26502;SDS011;14177;51.520;6.764;2023-08-20T14:17:34;3.90;;;1.15;;
26502;SDS011;14177;51.520;6.764;2023-08-20T14:20:01;3.92;;;1.00;;
26502;SDS011;14177;51.520;6.764;2023-08-20T14:22:28;3.88;;;1.08;;
26502;SDS011;14177;51.520;6.764;2023-08-20T14:24:55;3.97;;;1.20;;
26502;SDS011;14177;51.520;6.764;2023-08-20T14:27:22;4.90;;;1.30;;
26502;SDS011;14177;51.520;6.764;2023-08-20T14:29:49;3.22;;;0.93;;
26502;SDS011;14177;51.520;6.764;2023-08-20T14:32:16;5.35;;;1.13;;
26502;SDS011;14177;51.520;6.764;2023-08-20T14:34:43;5.70;;;1.38;;
26502;SDS011;14177;51.520;6.764;2023-08-20T14:37:10;2.92;;;0.70;;
26502;SDS011;14177;51.520;6.764;2023-08-20T14:39:39;2.72;;;0.65;;
26502;SDS011;14177;51.520;6.764;2023-08-20T14:42:06;1.63;;;0.82;;
26502;SDS011;14177;51.520;6.764;2023-08-20T14:44:34;3.40;;;1.00;;
26502;SDS011;14177;51.520;6.764;2023-08-20T14:47:01;2.72;;;1.02;;
26502;SDS011;14177;51.520;6.764;2023-08-20T14:49:27;3.45;;;1.00;;
26502;SDS011;14177;51.520;6.764;2023-08-20T14:51:55;6.53;;;0.95;;
26502;SDS011;14177;51.520;6.764;2023-08-20T14:54:42;3.35;;;0.90;;
26502;SDS011;14177;51.520;6.764;2023-08-20T14:57:09;3.25;;;0.85;;
26502;SDS011;14177;51.520;6.764;2023-08-20T14:59:36;3.00;;;1.15;;
26502;SDS011;14177;51.520;6.764;2023-08-20T15:02:03;4.35;;;0.95;;
26502;SDS011;14177;51.520;6.764;2023-08-20T15:04:30;4.45;;;1.10;;